Time;durP1;ratioP1;P1;durP2;ratioP2;P2;SDS_P1;SDS_P2;PMS_P1;PMS_P2;Temp;Humidity;BMP_temperature;BMP_pressure;BME280_temperature;BME280_humidity;BME280_pressure;Samples;Min_cycle;Max_cycle;Signal;HPM_P1;HPM_P2
2022/06/03 00:00:40;;;;;;;14.90;5.10;;;;;;;10.08;52.52;99643.66;105786;1275;22652;-80
2022/06/03 00:03:49;;;;;;;13.90;4.70;;;;;;;10.13;52.71;99647.31;105931;1276;25240;-79
2022/06/03 00:07:02;;;;;;;13.50;5.50;;;;;;;10.17;52.80;99647.55;105915;1276;24324;-79
2022/06/03 00:10:16;;;;;;;16.80;5.60;;;;;;;10.16;53.07;99643.39;105868;1277;25647;-78
2022/06/03 00:13:26;;;;;;;;;;;;;;;;;;;;;
2022/06/03 00:16:08;;;;;;;16.00;5.70;;;;;;;9.93;53.26;99641.18;105944;1274;22693;-83
2022/06/03 00:19:03;;;;;;;13.70;5.60;;;;;;;9.85;53.56;99642.20;105892;1276;22608;-78
2022/06/03 00:22:35;;;;;;;15.00;5.40;;;;;;;9.79;53.70;99640.45;105884;1274;22656;-82
2022/06/03 00:25:34;;;;;;;20.40;5.40;;;;;;;9.67;53.80;99643.84;105958;1275;24347;-82
2022/06/03 00:29:24;;;;;;;15.80;4.80;;;;;;;9.55;53.91;99644.36;105880;1275;22571;-85
2022/06/03 00:32:03;;;;;;;15.70;5.00;;;;;;;9.55;54.10;99641.20;105919;1276;25246;-79
2022/06/03 00:35:37;;;;;;;20.20;5.80;;;;;;;9.53;54.24;99642.55;105978;1274;25292;-79
2022/06/03 00:38:34;;;;;;;13.80;5.70;;;;;;;9.57;54.01;99638.73;105925;1274;24387;-81
2022/06/03 00:41:48;;;;;;;11.70;5.00;;;;;;;9.65;54.07;99639.14;105904;1276;25569;-82
2022/06/03 00:44:36;;;;;;;;;;;;;;;;;;;;;
2022/06/03 00:47:22;;;;;;;14.40;5.40;;;;;;;9.65;54.05;99640.90;105904;1276;25229;-81
2022/06/03 00:50:46;;;;;;;20.30;6.60;;;;;;;9.59;54.30;99634.53;105897;1276;22569;-79
2022/06/03 00:54:08;;;;;;;16.20;6.20;;;;;;;9.53;54.45;99636.52;105955;1275;25397;-79
2022/06/03 00:57:28;;;;;;;13.80;5.70;;;;;;;9.53;54.27;99633.80;105925;1276;25353;-78
2022/06/03 01:00:53;;;;;;;;;;;;;;;;;;;;;
2022/06/03 01:03:41;;;;;;;19.40;6.40;;;;;;;9.48;54.81;99625.38;105973;1275;22531;-82
2022/06/03 01:07:16;;;;;;;;;;;;;;;;;;;;;
2022/06/03 01:10:29;;;;;;;16.60;5.90;;;;;;;9.40;54.66;99628.17;105917;1276;24283;-84
2022/06/03 01:14:58;;;;;;;14.60;5.80;;;;;;;9.39;54.60;99623.94;105947;1275;25545;-79
2022/06/03 01:17:18;;;;;;;17.90;6.70;;;;;;;9.39;54.63;99626.09;105833;1275;25344;-78
2022/06/03 01:20:41;;;;;;;14.40;5.70;;;;;;;9.39;54.61;99625.57;105911;1277;22565;-84
2022/06/03 01:24:04;;;;;;;17.90;6.70;;;;;;;9.32;54.65;99624.58;105939;1275;24204;-78
2022/06/03 01:27:31;;;;;;;20.70;7.00;;;;;;;9.29;54.74;99629.71;105942;1275;22556;-79
2022/06/03 01:31:21;;;;;;;;;;;;;;;;;;;;;
2022/06/03 01:35:15;;;;;;;20.10;7.10;;;;;;;9.18;55.10;99623.02;105924;1275;24223;-81
2022/06/03 01:38:17;;;;;;;21.20;7.50;;;;;;;9.09;55.29;99618.80;105890;1275;22554;-86
2022/06/03 01:41:49;;;;;;;;;;;;;;;;;;;;;
2022/06/03 01:44:56;;;;;;;20.50;6.60;;;;;;;8.84;55.58;99613.98;105943;1275;22549;-80
2022/06/03 01:48:29;;;;;;;;;;;;;;;;;;;;;
2022/06/03 01:52:12;;;;;;;;;;;;;;;;;;;;;
2022/06/03 01:55:55;;;;;;;;;;;;;;;;;;;;;
2022/06/03 01:59:38;;;;;;;14.00;6.30;;;;;;;8.64;55.85;99628.06;105265;1287;23116;-79
2022/06/03 02:02:58;;;;;;;15.00;5.80;;;;;;;8.78;56.03;99630.48;104620;1290;22553;-82
2022/06/03 02:06:39;;;;;;;;;;;;;;;;;;;;;
2022/06/03 02:09:54;;;;;;;13.40;5.40;;;;;;;8.96;55.82;99628.95;104909;1287;23088;-80
2022/06/03 02:13:28;;;;;;;17.00;6.10;;;;;;;8.97;56.03;99623.21;104883;1287;25214;-79
2022/06/03 02:16:20;;;;;;;14.10;6.00;;;;;;;8.89;56.23;99624.16;104922;1288;25397;-79
2022/06/03 02:19:13;;;;;;;15.70;5.90;;;;;;;8.86;55.85;99619.17;104888;1288;24101;-83
2022/06/03 02:22:05;;;;;;;13.70;5.60;;;;;;;8.83;56.18;99612.96;104579;1291;24962;-86
2022/06/03 02:25:28;;;;;;;14.50;5.40;;;;;;;8.82;56.28;99609.80;104873;1288;22697;-83
2022/06/03 02:30:24;;;;;;;13.20;4.90;;;;;;;8.75;56.42;99607.71;105215;1284;22544;-79
2022/06/03 02:32:58;;;;;;;15.00;5.10;;;;;;;8.66;56.53;99610.00;106125;1273;22559;-78
2022/06/03 02:35:49;;;;;;;14.80;6.00;;;;;;;8.61;56.65;99611.89;105259;1282;22535;-78
2022/06/03 02:38:50;;;;;;;;;;;;;;;;;;;;;
2022/06/03 02:42:28;;;;;;;12.10;4.60;;;;;;;8.41;57.02;99618.67;105471;1281;25930;-79
2022/06/03 02:45:44;;;;;;;12.40;5.00;;;;;;;8.39;57.44;99619.80;103969;1294;23081;-83
2022/06/03 02:48:53;;;;;;;;;;;;;;;;;;;;;
2022/06/03 02:52:52;;;;;;;;;;;;;;;;;;;;;
2022/06/03 02:55:47;;;;;;;11.70;4.40;;;;;;;8.55;56.96;99619.85;104399;1294;25524;-80
2022/06/03 02:58:47;;;;;;;15.10;5.10;;;;;;;8.60;56.83;99622.20;104246;1295;25348;-79
2022/06/03 03:01:55;;;;;;;14.10;5.00;;;;;;;8.68;56.87;99614.73;104290;1294;23924;-80
2022/06/03 03:05:41;;;;;;;11.40;4.70;;;;;;;8.72;56.80;99617.33;104455;1294;22551;-79
2022/06/03 03:09:03;;;;;;;;;;;;;;;;;;;;;
2022/06/03 03:12:29;;;;;;;;;;;;;;;;;;;;;
2022/06/03 03:16:01;;;;;;;13.60;5.10;;;;;;;8.61;57.20;99620.78;103974;1300;24271;-85
2022/06/03 03:19:12;;;;;;;14.60;5.00;;;;;;;8.56;57.18;99616.80;104021;1297;24262;-82
2022/06/03 03:22:33;;;;;;;13.30;5.50;;;;;;;8.56;57.13;99620.15;104392;1290;25353;-80
2022/06/03 03:25:39;;;;;;;11.70;4.90;;;;;;;8.58;57.05;99622.15;105119;1287;22898;-80
2022/06/03 03:28:22;;;;;;;14.00;5.10;;;;;;;8.64;57.47;99621.46;105124;1287;22664;-79
2022/06/03 03:31:42;;;;;;;12.40;4.80;;;;;;;8.74;57.38;99621.33;105101;1288;26509;-80
2022/06/03 03:34:33;;;;;;;14.40;5.40;;;;;;;8.79;57.57;99619.39;104321;1294;22557;-83
2022/06/03 03:37:47;;;;;;;;;;;;;;;;;;;;;
2022/06/03 03:41:11;;;;;;;13.50;5.00;;;;;;;8.97;57.44;99621.57;104349;1293;22627;-86
2022/06/03 03:44:38;;;;;;;;;;;;;;;;;;;;;
2022/06/03 03:48:19;;;;;;;10.70;4.20;;;;;;;9.23;57.71;99630.58;105256;1284;22718;-79
2022/06/03 03:51:39;;;;;;;;;;;;;;;;;;;;;
2022/06/03 03:55:04;;;;;;;10.80;4.10;;;;;;;9.53;57.47;99621.59;104904;1287;22605;-84
2022/06/03 03:58:31;;;;;;;12.10;4.50;;;;;;;9.72;57.38;99623.09;104938;1287;22561;-80
2022/06/03 04:01:32;;;;;;;10.00;3.90;;;;;;;9.99;57.78;99623.23;104859;1291;22837;-81
2022/06/03 04:05:05;;;;;;;;;;;;;;;;;;;;;
2022/06/03 04:08:33;;;;;;;13.10;4.50;;;;;;;10.41;57.74;99620.31;104671;1290;24326;-82
2022/06/03 04:11:49;;;;;;;9.90;4.30;;;;;;;10.56;57.89;99623.11;104882;1289;22553;-81
2022/06/03 04:14:53;;;;;;;;;;;;;;;;;;;;;
2022/06/03 04:18:08;;;;;;;11.70;4.40;;;;;;;10.85;57.80;99625.77;105258;1284;25489;-80
2022/06/03 04:21:10;;;;;;;11.00;5.60;;;;;;;10.99;57.69;99632.15;105497;1284;22589;-82
2022/06/03 04:24:24;;;;;;;18.60;7.80;;;;;;;11.14;57.78;99630.61;105499;1284;23968;-79
2022/06/03 04:27:09;;;;;;;17.80;7.00;;;;;;;11.34;58.00;99629.63;105417;1284;22583;-82
2022/06/03 04:30:16;;;;;;;15.80;6.20;;;;;;;11.55;58.04;99625.02;105602;1281;22563;-82
2022/06/03 04:33:32;;;;;;;12.40;4.90;;;;;;;11.83;57.85;99623.55;105685;1280;22770;-80
2022/06/03 04:37:12;;;;;;;;;;;;;;;;;;;;;
2022/06/03 04:40:30;;;;;;;9.80;4.30;;;;;;;12.42;57.73;99631.76;105957;1274;22557;-82
2022/06/03 04:43:57;;;;;;;10.70;3.70;;;;;;;12.65;57.81;99633.29;105914;1275;22649;-83
2022/06/03 04:46:55;;;;;;;14.50;4.20;;;;;;;12.91;57.84;99628.21;105654;1281;24240;-83
2022/06/03 04:50:15;;;;;;;12.00;3.90;;;;;;;13.08;57.79;99628.63;105752;1281;22531;-80
2022/06/03 04:53:05;;;;;;;12.20;4.00;;;;;;;13.29;57.61;99632.78;105642;1281;24219;-83
2022/06/03 04:59:39;;;;;;;10.70;4.30;;;;;;;13.72;57.55;99632.44;105665;1281;22536;-78
2022/06/03 05:02:51;;;;;;;10.70;4.00;;;;;;;13.91;57.40;99632.05;105949;1281;24377;-80
2022/06/03 05:05:43;;;;;;;13.70;4.70;;;;;;;14.07;57.37;99631.52;105691;1281;24341;-80
2022/06/03 05:08:53;;;;;;;10.50;4.30;;;;;;;14.25;57.31;99637.25;105673;1281;24309;-78
2022/06/03 05:11:28;;;;;;;12.30;4.60;;;;;;;14.49;57.24;99637.73;105901;1284;25334;-79
2022/06/03 05:14:42;;;;;;;13.40;3.70;;;;;;;14.73;57.31;99630.44;105578;1283;22707;-82
2022/06/03 05:17:25;;;;;;;12.90;3.90;;;;;;;15.10;57.31;99631.25;105735;1281;25464;-84
2022/06/03 05:20:05;;;;;;;13.50;3.40;;;;;;;15.39;57.25;99636.75;105853;1276;22569;-80
2022/06/03 05:23:10;;;;;;;;;;;;;;;;;;;;;
2022/06/03 05:26:28;;;;;;;10.60;3.10;;;;;;;15.89;56.95;99633.48;106003;1275;22571;-79
2022/06/03 05:29:04;;;;;;;8.10;2.70;;;;;;;16.20;56.70;99629.90;106154;1274;325485;-86
2022/06/03 05:32:07;;;;;;;10.40;2.30;;;;;;;16.41;56.31;99630.52;106137;1273;22664;-78
2022/06/03 05:35:35;;;;;;;13.50;2.50;;;;;;;16.56;55.90;99632.40;106035;1274;22698;-80
2022/06/03 05:38:43;;;;;;;8.90;2.00;;;;;;;16.71;56.08;99631.69;106001;1274;22532;-85
2022/06/03 05:45:03;;;;;;;7.20;1.90;;;;;;;17.16;55.71;99622.13;105962;1274;22551;-84
2022/06/03 05:47:55;;;;;;;8.20;1.90;;;;;;;17.34;55.76;99623.34;106223;1274;25216;-81
2022/06/03 05:51:05;;;;;;;6.60;1.60;;;;;;;17.55;55.59;99630.29;105888;1274;23050;-79
2022/06/03 05:54:00;;;;;;;9.60;1.70;;;;;;;17.74;55.33;99631.64;106463;1274;22506;-80
2022/06/03 05:57:05;;;;;;;9.30;1.80;;;;;;;17.88;55.14;99633.02;105693;1281;22563;-79
2022/06/03 06:00:20;;;;;;;6.30;1.80;;;;;;;18.05;54.91;99631.80;105699;1281;23246;-78
2022/06/03 06:03:00;;;;;;;4.90;1.80;;;;;;;18.22;54.85;99623.09;105554;1281;25269;-81
2022/06/03 06:06:15;;;;;;;5.70;1.70;;;;;;;18.42;54.96;99626.23;105678;1281;23597;-84
2022/06/03 06:09:43;;;;;;;;;;;;;;;;;;;;;
2022/06/03 06:12:39;;;;;;;4.40;1.40;;;;;;;18.88;54.46;99623.41;105365;1282;22713;-81
2022/06/03 06:16:09;;;;;;;5.50;1.60;;;;;;;18.96;54.43;99619.38;105809;1281;22549;-78
2022/06/03 06:19:37;;;;;;;7.20;1.60;;;;;;;19.20;54.66;99618.70;105644;1281;25352;-78
2022/06/03 06:22:26;;;;;;;5.20;1.70;;;;;;;19.45;54.68;99618.14;105362;1281;22878;-80
2022/06/03 06:25:22;;;;;;;7.30;1.90;;;;;;;19.64;54.61;99615.68;105350;1281;22541;-81
2022/06/03 06:28:00;;;;;;;9.70;2.30;;;;;;;19.81;54.72;99613.70;105588;1281;22655;-78
2022/06/03 06:30:58;;;;;;;8.30;2.10;;;;;;;19.92;54.39;99610.88;105501;1281;25220;-83
2022/06/03 06:33:53;;;;;;;8.00;2.30;;;;;;;20.06;54.20;99607.06;106033;1274;25777;-76
2022/06/03 06:36:52;;;;;;;9.60;1.90;;;;;;;20.21;54.34;99610.79;105864;1273;25515;-82
2022/06/03 06:39:57;;;;;;;8.20;2.10;;;;;;;20.37;54.48;99613.63;105739;1273;22570;-85
2022/06/03 06:42:33;;;;;;;9.40;2.30;;;;;;;20.60;54.49;99619.73;106154;1273;25256;-80
2022/06/03 06:45:36;;;;;;;7.90;2.50;;;;;;;20.74;54.17;99617.91;105933;1274;25340;-79
2022/06/03 06:48:21;;;;;;;10.70;2.50;;;;;;;20.82;53.99;99619.44;106072;1275;24239;-79
2022/06/03 06:50:56;;;;;;;8.20;3.20;;;;;;;20.87;53.58;99619.16;105858;1274;24388;-85
2022/06/03 06:54:05;;;;;;;6.90;2.70;;;;;;;20.83;53.83;99617.71;105956;1274;22553;-79
2022/06/03 06:56:41;;;;;;;7.50;2.70;;;;;;;21.02;53.82;99617.66;105817;1277;22607;-77
2022/06/03 06:59:14;;;;;;;7.60;2.20;;;;;;;21.15;53.83;99613.94;106717;1273;25350;-79
2022/06/03 07:01:49;;;;;;;10.20;2.00;;;;;;;21.24;53.65;99611.13;106787;1273;23214;-78
2022/06/03 07:04:35;;;;;;;6.20;2.00;;;;;;;21.38;53.73;99606.80;105931;1273;22738;-83
2022/06/03 07:07:19;;;;;;;5.60;1.80;;;;;;;21.53;53.68;99592.46;105852;1274;22695;-81
2022/06/03 07:10:00;;;;;;;6.60;1.80;;;;;;;21.73;53.62;99590.04;106081;1273;24405;-82
2022/06/03 07:12:41;;;;;;;5.70;1.90;;;;;;;21.89;53.30;99588.82;105920;1274;22553;-84
2022/06/03 07:15:24;;;;;;;4.00;1.70;;;;;;;21.99;53.21;99584.60;105844;1274;25542;-84
2022/06/03 07:21:07;;;;;;;4.60;1.70;;;;;;;22.24;53.15;99573.45;106114;1273;24205;-83
2022/06/03 07:23:46;;;;;;;6.20;1.70;;;;;;;22.41;52.98;99574.74;105902;1274;25239;-76
2022/06/03 07:26:33;;;;;;;4.40;1.80;;;;;;;22.50;52.66;99571.11;106112;1273;22688;-76
2022/06/03 07:29:39;;;;;;;6.00;1.40;;;;;;;22.58;52.67;99567.78;106103;1273;22579;-85
2022/06/03 07:32:20;;;;;;;3.70;1.50;;;;;;;22.74;52.51;99561.64;106140;1273;22775;-79
2022/06/03 07:34:54;;;;;;;5.60;1.40;;;;;;;22.87;52.31;99553.77;106099;1273;24222;-79
2022/06/03 07:37:55;;;;;;;4.00;1.50;;;;;;;22.97;52.20;99554.44;106118;1273;22694;-83
2022/06/03 07:40:32;;;;;;;5.30;1.30;;;;;;;23.10;52.22;99556.95;106048;1273;22553;-76
2022/06/03 07:43:14;;;;;;;6.40;1.70;;;;;;;23.21;52.02;99559.32;105863;1273;22569;-78
2022/06/03 07:46:14;;;;;;;5.20;1.40;;;;;;;23.30;52.12;99557.87;105919;1273;22701;-82
2022/06/03 07:48:42;;;;;;;3.90;1.50;;;;;;;23.47;52.09;99555.45;105878;1273;24279;-76
2022/06/03 07:51:31;;;;;;;4.60;1.60;;;;;;;23.60;51.69;99559.55;105976;1274;25292;-82
2022/06/03 07:54:11;;;;;;;5.00;1.50;;;;;;;23.65;51.42;99556.70;106097;1273;22560;-83
2022/06/03 07:56:39;;;;;;;4.90;1.40;;;;;;;23.76;51.71;99555.02;105961;1273;22541;-80
2022/06/03 07:59:15;;;;;;;3.80;1.50;;;;;;;23.90;51.69;99554.80;105908;1273;24405;-82
2022/06/03 08:01:56;;;;;;;4.00;1.20;;;;;;;24.04;51.42;99552.13;105632;1274;23125;-73
2022/06/03 08:04:37;;;;;;;7.70;2.20;;;;;;;24.08;51.15;99554.21;105811;1273;22541;-80
2022/06/03 08:12:58;;;;;;;6.40;1.50;;;;;;;24.49;50.92;99555.22;106045;1273;26461;-75
2022/06/03 08:15:59;;;;;;;3.50;1.50;;;;;;;24.56;50.79;99548.76;105836;1273;23542;-79
2022/06/03 08:18:34;;;;;;;4.50;1.50;;;;;;;24.64;51.02;99548.08;105857;1275;23056;-80
2022/06/03 08:21:09;;;;;;;5.50;1.60;;;;;;;24.77;50.77;99543.08;105921;1274;22529;-81
2022/06/03 08:23:38;;;;;;;4.40;1.60;;;;;;;24.84;50.67;99543.38;105893;1275;25606;-74
2022/06/03 08:26:11;;;;;;;4.80;1.70;;;;;;;24.91;50.50;99542.79;105911;1274;25239;-75
2022/06/03 08:28:43;;;;;;;5.30;1.30;;;;;;;24.92;50.32;99542.40;105888;1274;24212;-80
2022/06/03 08:31:11;;;;;;;3.60;1.30;;;;;;;24.99;50.43;99543.91;105883;1274;23408;-78
2022/06/03 08:33:49;;;;;;;8.70;1.70;;;;;;;25.09;50.24;99547.50;105907;1274;23018;-82
2022/06/03 08:36:21;;;;;;;5.50;1.80;;;;;;;25.16;50.33;99547.08;105773;1274;23945;-79
2022/06/03 08:38:57;;;;;;;4.30;1.50;;;;;;;25.27;50.25;99548.81;105907;1274;22617;-76
2022/06/03 08:41:48;;;;;;;4.60;1.80;;;;;;;25.38;50.15;99548.38;106009;1274;22636;-81
2022/06/03 08:44:34;;;;;;;3.90;1.50;;;;;;;25.49;49.83;99543.66;105915;1276;22585;-81
2022/06/03 08:47:15;;;;;;;10.70;4.10;;;;;;;25.54;49.56;99540.66;105887;1274;22605;-80
2022/06/03 08:50:28;;;;;;;8.50;3.30;;;;;;;25.56;49.60;99536.60;105935;1274;22580;-81
2022/06/03 08:53:24;;;;;;;4.40;1.60;;;;;;;25.63;49.55;99535.91;105848;1276;23162;-80
2022/06/03 08:56:03;;;;;;;5.80;2.20;;;;;;;25.73;49.41;99534.05;105933;1274;22562;-80
2022/06/03 08:58:45;;;;;;;12.40;4.60;;;;;;;25.80;49.29;99532.02;105827;1274;22571;-82
2022/06/03 09:01:39;;;;;;;3.90;1.40;;;;;;;25.84;48.64;99530.46;105833;1275;24375;-80
2022/06/03 09:04:25;;;;;;;9.40;3.20;;;;;;;25.73;48.78;99528.23;105846;1274;22528;-80
2022/06/03 09:06:58;;;;;;;4.80;1.30;;;;;;;25.75;48.71;99527.80;105902;1274;22846;-82
2022/06/03 09:09:48;;;;;;;4.90;1.30;;;;;;;25.81;48.60;99527.36;105942;1274;24290;-78
2022/06/03 09:12:50;;;;;;;17.90;6.10;;;;;;;25.93;48.47;99528.64;105921;1274;22656;-78
2022/06/03 09:15:25;;;;;;;4.70;1.80;;;;;;;25.89;48.21;99532.14;105819;1274;22860;-83
2022/06/03 09:17:58;;;;;;;4.80;1.60;;;;;;;25.97;48.25;99537.75;105960;1273;22537;-78
2022/06/03 09:20:40;;;;;;;8.60;2.30;;;;;;;26.09;48.05;99534.23;105822;1276;22760;-78
2022/06/03 09:23:10;;;;;;;6.00;1.60;;;;;;;26.22;48.08;99532.88;105848;1273;22591;-82
2022/06/03 09:25:43;;;;;;;7.00;2.20;;;;;;;26.31;47.79;99527.06;106164;1273;24275;-80
2022/06/03 09:28:17;;;;;;;5.10;1.40;;;;;;;26.45;47.91;99527.77;105968;1274;22557;-82
2022/06/03 09:30:46;;;;;;;6.20;1.50;;;;;;;26.57;47.33;99531.13;106031;1273;23863;-74
2022/06/03 09:33:18;;;;;;;8.10;2.10;;;;;;;26.64;47.10;99524.69;105951;1274;22597;-82
2022/06/03 09:35:49;;;;;;;10.60;2.60;;;;;;;26.71;47.06;99516.58;106120;1273;24195;-82
2022/06/03 09:38:21;;;;;;;14.60;5.90;;;;;;;26.79;46.98;99511.60;106102;1273;22535;-77
2022/06/03 09:40:55;;;;;;;5.50;1.50;;;;;;;26.89;46.87;99513.41;106108;1273;24272;-76
2022/06/03 09:43:47;;;;;;;24.70;11.80;;;;;;;26.96;46.67;99508.46;105934;1273;25501;-74
2022/06/03 09:46:40;;;;;;;9.20;3.50;;;;;;;26.97;46.15;99508.34;105925;1274;22552;-78
2022/06/03 09:49:09;;;;;;;7.80;2.00;;;;;;;26.90;45.94;99506.50;105915;1273;25366;-76
2022/06/03 09:52:00;;;;;;;3.40;0.90;;;;;;;26.93;46.35;99506.42;106112;1273;22610;-76
2022/06/03 09:54:44;;;;;;;8.00;1.70;;;;;;;27.10;46.11;99508.23;105969;1274;24621;-81
2022/06/03 09:57:24;;;;;;;4.60;1.10;;;;;;;27.23;45.96;99513.81;106085;1273;22556;-75
2022/06/03 10:00:26;;;;;;;;;;;;;;;;;;;;;
2022/06/03 10:02:58;;;;;;;3.30;1.10;;;;;;;27.41;45.83;99501.27;105939;1273;24257;-76
2022/06/03 10:05:28;;;;;;;12.80;4.90;;;;;;;27.49;45.70;99497.23;106090;1273;24383;-75
2022/06/03 10:08:02;;;;;;;6.30;1.40;;;;;;;27.56;44.97;99497.03;105911;1274;22617;-77
2022/06/03 10:13:39;;;;;;;6.60;1.70;;;;;;;27.59;44.98;99503.19;105917;1273;24240;-79
2022/06/03 10:16:14;;;;;;;3.80;1.20;;;;;;;27.60;44.92;99499.87;105896;1273;24258;-78
2022/06/03 10:18:50;;;;;;;5.60;1.60;;;;;;;27.70;45.06;99496.60;106089;1273;25187;-75
2022/06/03 10:21:20;;;;;;;3.20;1.10;;;;;;;27.78;44.63;99492.73;105928;1273;22539;-77
2022/06/03 10:24:02;;;;;;;3.60;1.10;;;;;;;27.87;44.79;99488.80;106073;1273;24444;-76
2022/06/03 10:26:48;;;;;;;4.10;0.90;;;;;;;27.90;44.13;99490.23;105957;1273;23907;-81
2022/06/03 10:29:20;;;;;;;2.60;0.80;;;;;;;27.84;43.48;99495.77;106049;1273;24227;-79
2022/06/03 10:31:54;;;;;;;4.70;0.80;;;;;;;27.77;43.42;99493.14;105931;1274;22553;-78
2022/06/03 10:34:27;;;;;;;5.20;1.00;;;;;;;27.75;43.56;99487.70;106116;1273;22574;-76
2022/06/03 10:36:56;;;;;;;3.60;0.70;;;;;;;27.80;43.21;99484.79;106116;1273;24189;-79
2022/06/03 10:39:28;;;;;;;5.30;1.00;;;;;;;27.69;43.05;99477.85;106142;1273;24204;-74
2022/06/03 10:41:58;;;;;;;3.60;0.90;;;;;;;27.69;43.09;99477.73;106094;1273;24353;-75
2022/06/03 10:44:36;;;;;;;3.20;0.90;;;;;;;27.62;42.60;99479.73;106118;1273;25513;-74
2022/06/03 10:47:19;;;;;;;2.00;0.90;;;;;;;27.66;42.94;99474.25;105883;1273;23006;-77
2022/06/03 10:49:56;;;;;;;3.30;1.10;;;;;;;27.80;42.91;99472.92;105922;1274;22532;-76
2022/06/03 11:01:27;;;;;;;4.10;1.30;;;;;;;28.05;42.50;99462.94;106025;1273;22544;-75
2022/06/03 11:04:18;;;;;;;;;;;;;;;;;;;;;
2022/06/03 11:06:45;;;;;;;2.40;0.90;;;;;;;28.23;42.05;99456.60;105730;1275;22799;-77
2022/06/03 11:09:15;;;;;;;3.10;0.90;;;;;;;28.22;42.06;99456.77;105836;1275;23575;-77
2022/06/03 11:11:47;;;;;;;4.50;1.10;;;;;;;28.20;42.36;99450.66;105661;1274;25430;-74
2022/06/03 11:14:32;;;;;;;2.60;0.80;;;;;;;28.20;41.69;99449.42;105718;1274;24229;-74
2022/06/03 11:17:31;;;;;;;5.20;0.90;;;;;;;28.09;41.59;99451.44;105807;1273;25566;-74
2022/06/03 11:19:59;;;;;;;5.20;1.00;;;;;;;28.11;41.84;99450.13;105402;1279;24224;-76
2022/06/03 11:22:27;;;;;;;2.20;0.80;;;;;;;28.14;41.61;99452.45;105440;1280;22914;-75
2022/06/03 11:25:22;;;;;;;2.50;0.80;;;;;;;28.07;41.40;99447.52;105634;1278;24293;-76
2022/06/03 11:28:11;;;;;;;3.00;0.90;;;;;;;28.06;41.27;99444.98;105604;1281;25385;-73
2022/06/03 11:30:46;;;;;;;3.60;0.90;;;;;;;28.04;40.98;99438.14;105396;1281;22707;-80
2022/06/03 11:33:24;;;;;;;1.90;0.90;;;;;;;28.01;41.12;99431.02;105437;1281;24291;-76
2022/06/03 11:36:06;;;;;;;2.40;0.90;;;;;;;27.95;40.93;99424.35;105447;1281;25370;-76
2022/06/03 11:39:02;;;;;;;4.00;1.10;;;;;;;27.96;41.12;99422.11;105406;1281;25454;-76
2022/06/03 11:42:21;;;;;;;3.00;1.00;;;;;;;27.99;40.86;99418.60;105459;1281;25429;-76
2022/06/03 11:45:36;;;;;;;;;;;;;;;;;;;;;
2022/06/03 11:48:35;;;;;;;2.50;0.80;;;;;;;27.97;40.12;99406.14;105928;1281;23914;-76
2022/06/03 11:51:07;;;;;;;2.90;0.80;;;;;;;27.92;40.27;99406.27;105805;1281;22480;-75
2022/06/03 11:53:41;;;;;;;3.10;1.00;;;;;;;27.92;40.35;99396.90;106451;1281;24004;-75
2022/06/03 11:56:50;;;;;;;2.20;1.00;;;;;;;27.92;40.44;99395.93;106051;1274;25545;-78
2022/06/03 11:59:34;;;;;;;4.80;0.90;;;;;;;28.01;40.49;99387.48;107051;1273;24431;-76
2022/06/03 12:02:20;;;;;;;3.60;1.00;;;;;;;28.02;39.96;99381.97;105960;1273;23177;-74
2022/06/03 12:05:05;;;;;;;2.50;0.80;;;;;;;27.92;39.82;99376.05;106950;1273;22717;-76
2022/06/03 12:08:42;;;;;;;;;;;;;;;;;;;;;
2022/06/03 12:28:53;;;;;;;6.90;1.50;;;;;;;27.76;39.35;99344.85;105638;1287;22691;-75
2022/06/03 12:31:23;;;;;;;2.90;1.10;;;;;;;27.71;39.08;99353.05;104631;1288;22642;-75
2022/06/03 12:34:11;;;;;;;2.00;0.90;;;;;;;27.67;39.17;99354.33;104703;1287;25564;-75
2022/06/03 12:36:47;;;;;;;3.90;1.10;;;;;;;27.61;39.09;99353.62;104384;1288;24306;-81
2022/06/03 12:39:54;;;;;;;3.70;1.10;;;;;;;27.59;39.20;99344.80;104350;1290;24237;-80
2022/06/03 12:42:27;;;;;;;4.10;1.40;;;;;;;27.62;39.19;99340.20;104762;1288;24277;-74
2022/06/03 12:45:04;;;;;;;4.50;1.00;;;;;;;27.61;39.20;99340.87;104613;1288;22582;-77
2022/06/03 12:47:38;;;;;;;3.50;1.20;;;;;;;27.61;39.18;99337.27;105298;1281;25302;-78
2022/06/03 12:51:19;;;;;;;2.90;1.00;;;;;;;27.58;39.05;99323.79;105140;1282;24681;-75
2022/06/03 12:54:12;;;;;;;5.00;1.40;;;;;;;27.53;38.89;99323.15;104672;1291;23088;-75
2022/06/03 12:56:55;;;;;;;8.70;2.30;;;;;;;27.51;38.75;99317.48;104513;1288;22641;-81
2022/06/03 12:59:48;;;;;;;11.60;3.80;;;;;;;27.43;38.71;99317.10;105010;1288;26718;-74
2022/06/03 13:02:17;;;;;;;5.10;1.50;;;;;;;27.41;38.51;99310.84;104446;1290;22525;-74
2022/06/03 13:04:47;;;;;;;3.70;1.20;;;;;;;27.42;38.43;99308.02;105185;1284;24189;-76
2022/06/03 13:07:26;;;;;;;4.70;1.40;;;;;;;27.42;38.58;99307.14;105099;1284;26476;-74
2022/06/03 13:10:02;;;;;;;5.20;1.30;;;;;;;27.41;38.46;99305.58;105124;1284;23137;-81
2022/06/03 13:12:35;;;;;;;5.50;1.60;;;;;;;27.33;38.27;99302.05;105269;1284;22963;-74
2022/06/03 13:15:49;;;;;;;5.00;1.60;;;;;;;27.25;38.32;99298.56;105608;1284;22572;-76
2022/06/03 13:18:49;;;;;;;9.60;2.20;;;;;;;27.26;38.25;99296.08;104814;1287;22525;-74
2022/06/03 13:21:25;;;;;;;5.80;2.10;;;;;;;27.23;38.09;99295.73;104420;1288;25376;-75
2022/06/03 13:23:58;;;;;;;6.10;1.70;;;;;;;27.17;38.21;99286.79;104557;1288;25561;-76
2022/06/03 13:26:27;;;;;;;43.90;17.80;;;;;;;27.19;38.25;99272.70;104777;1288;22801;-75
2022/06/03 13:28:59;;;;;;;5.20;2.00;;;;;;;27.20;38.25;99274.52;105526;1282;22608;-74
2022/06/03 13:31:30;;;;;;;20.30;8.30;;;;;;;27.21;38.05;99271.05;106112;1282;25932;-74
2022/06/03 13:34:09;;;;;;;18.80;8.30;;;;;;;27.25;38.02;99269.66;105388;1282;24211;-74
2022/06/03 13:36:52;;;;;;;27.80;11.30;;;;;;;27.25;37.95;99271.14;105589;1282;25341;-76
2022/06/03 13:39:49;;;;;;;13.00;4.90;;;;;;;27.26;38.08;99268.86;105509;1282;23077;-74
2022/06/03 13:45:10;;;;;;;16.40;5.50;;;;;;;27.31;38.05;99260.20;105512;1282;22566;-80
2022/06/03 13:47:51;;;;;;;;;;;;;;;;;;;;;
2022/06/03 13:50:35;;;;;;;9.80;2.50;;;;;;;27.32;37.78;99264.00;105509;1282;24303;-74
2022/06/03 13:53:13;;;;;;;5.90;1.60;;;;;;;27.33;37.63;99254.63;105424;1284;22556;-80
2022/06/03 13:55:55;;;;;;;5.50;1.50;;;;;;;27.34;37.73;99248.51;105659;1276;22532;-78
2022/06/03 13:58:36;;;;;;;2.70;0.90;;;;;;;27.33;37.69;99258.46;105860;1274;22540;-77
2022/06/03 14:01:39;;;;;;;3.60;0.90;;;;;;;27.35;37.65;99254.05;105856;1276;22750;-81
2022/06/03 14:04:30;;;;;;;3.60;1.20;;;;;;;27.33;37.73;99256.10;105884;1274;22535;-78
2022/06/03 14:07:07;;;;;;;6.00;1.40;;;;;;;27.36;37.52;99259.40;105821;1278;22600;-80
2022/06/03 14:09:53;;;;;;;4.70;1.30;;;;;;;27.35;37.63;99255.42;105952;1274;22636;-75
2022/06/03 14:12:24;;;;;;;7.90;1.90;;;;;;;27.43;37.85;99247.90;105888;1274;24250;-76
2022/06/03 14:15:02;;;;;;;5.40;1.60;;;;;;;27.52;37.73;99250.80;105898;1274;25655;-74
2022/06/03 14:17:50;;;;;;;4.00;1.30;;;;;;;27.53;37.42;99253.02;105898;1274;22628;-74
2022/06/03 14:20:49;;;;;;;11.20;4.20;;;;;;;27.54;37.39;99247.62;105952;1273;22682;-76
2022/06/03 14:23:24;;;;;;;9.50;2.80;;;;;;;27.53;37.63;99242.55;106082;1273;24189;-78
2022/06/03 14:26:02;;;;;;;5.60;1.40;;;;;;;27.60;37.59;99236.25;106009;1274;22768;-80
2022/06/03 14:28:56;;;;;;;3.00;1.10;;;;;;;27.71;37.51;99228.75;105953;1273;23064;-77
2022/06/03 14:31:36;;;;;;;4.00;1.20;;;;;;;27.78;37.29;99230.20;105934;1274;24223;-76
2022/06/03 14:34:29;;;;;;;3.10;1.20;;;;;;;27.73;36.90;99226.53;105898;1276;25353;-74
2022/06/03 14:37:02;;;;;;;4.10;1.40;;;;;;;27.62;36.92;99228.39;105892;1275;22564;-75
2022/06/03 14:39:59;;;;;;;4.30;1.50;;;;;;;27.57;37.16;99224.61;105936;1274;22701;-78
2022/06/03 14:42:32;;;;;;;4.40;1.30;;;;;;;27.54;37.03;99229.97;105972;1274;22701;-79
2022/06/03 14:45:01;;;;;;;3.00;1.20;;;;;;;27.51;37.08;99227.58;106053;1273;26445;-77
2022/06/03 14:47:51;;;;;;;6.90;2.10;;;;;;;27.47;37.20;99221.38;106035;1273;22535;-76
2022/06/03 14:50:27;;;;;;;4.60;1.30;;;;;;;27.44;37.22;99227.65;105987;1273;22601;-73
2022/06/03 14:53:00;;;;;;;3.10;1.30;;;;;;;27.45;37.15;99227.52;105973;1273;22755;-80
2022/06/03 14:56:16;;;;;;;;;;;;;;;;;;;;;
2022/06/03 14:58:56;;;;;;;11.20;3.90;;;;;;;27.47;37.20;99222.19;105340;1282;26508;-74
2022/06/03 15:01:51;;;;;;;10.30;2.90;;;;;;;27.52;37.23;99218.89;105427;1281;22669;-81
2022/06/03 15:04:40;;;;;;;7.20;1.60;;;;;;;27.56;37.17;99220.48;105393;1281;25262;-74